Time;durP1;ratioP1;P1;durP2;ratioP2;P2;SDS_P1;SDS_P2;PMS_P1;PMS_P2;Temp;Humidity;BMP_temperature;BMP_pressure;BME280_temperature;BME280_humidity;BME280_pressure;Samples;Min_cycle;Max_cycle;Signal;HPM_P1;HPM_P2
2022/06/22 00:00:42;;;;;;;12.00;8.77;;;13.10;99.90;;;;;;6209123;23;20025;-73
2022/06/22 00:03:11;;;;;;;12.65;9.50;;;13.00;99.90;;;;;;6209343;23;20059;-73
2022/06/22 00:05:43;;;;;;;14.65;10.52;;;13.00;99.90;;;;;;6209974;23;20322;-73
2022/06/22 00:08:16;;;;;;;14.95;9.18;;;13.00;99.90;;;;;;6180507;23;20023;-73
2022/06/22 00:10:53;;;;;;;15.18;10.50;;;12.90;99.90;;;;;;6209884;23;20020;-73
2022/06/22 00:13:23;;;;;;;19.58;10.63;;;12.90;99.90;;;;;;6210006;23;20024;-73
2022/06/22 00:16:16;;;;;;;13.57;9.02;;;12.90;99.90;;;;;;6208218;23;20012;-73
2022/06/22 00:18:45;;;;;;;11.18;8.57;;;12.90;99.90;;;;;;6209683;23;20095;-73
2022/06/22 00:21:25;;;;;;;11.95;8.27;;;12.80;99.90;;;;;;6210532;23;20175;-73
2022/06/22 00:23:55;;;;;;;11.85;8.50;;;12.80;99.90;;;;;;6207629;23;20070;-73
2022/06/22 00:26:23;;;;;;;16.13;9.07;;;12.80;99.90;;;;;;6182683;23;20423;-73
2022/06/22 00:28:52;;;;;;;13.30;9.65;;;12.80;99.90;;;;;;6181721;23;20021;-73
2022/06/22 00:31:37;;;;;;;16.25;9.68;;;12.70;99.90;;;;;;6209873;23;20027;-73
2022/06/22 00:34:09;;;;;;;14.95;9.27;;;12.70;99.90;;;;;;6181277;23;20072;-74
2022/06/22 00:36:35;;;;;;;14.80;9.45;;;12.70;99.90;;;;;;6206341;23;20099;-73
2022/06/22 00:39:14;;;;;;;14.50;8.38;;;12.70;99.90;;;;;;6208845;23;20139;-73
2022/06/22 00:41:40;;;;;;;16.50;9.93;;;12.60;99.90;;;;;;6210174;23;20027;-73
2022/06/22 00:44:11;;;;;;;13.98;8.93;;;12.60;99.90;;;;;;6207972;23;20013;-73
2022/06/22 00:46:42;;;;;;;13.13;9.60;;;12.60;99.90;;;;;;6209666;23;20017;-74
2022/06/22 00:49:09;;;;;;;;;;;12.60;99.90;;;;;;6210509;23;20378;-73
2022/06/22 00:51:40;;;;;;;14.45;8.35;;;12.50;99.90;;;;;;6207129;23;19912;-73
2022/06/22 00:54:10;;;;;;;12.07;8.88;;;12.40;99.90;;;;;;6182433;23;20016;-73
2022/06/22 00:57:00;;;;;;;18.25;11.10;;;12.50;99.90;;;;;;6211008;23;20004;-73
2022/06/22 00:59:51;;;;;;;13.68;9.75;;;12.40;99.90;;;;;;6204969;23;20095;-73
2022/06/22 01:02:19;;;;;;;15.23;9.67;;;12.40;99.90;;;;;;6183617;23;20511;-73
2022/06/22 01:04:59;;;;;;;15.32;9.60;;;12.40;99.90;;;;;;6209199;23;20024;-73
2022/06/22 01:07:33;;;;;;;14.35;8.82;;;12.40;99.90;;;;;;6182912;23;20024;-73
2022/06/22 01:10:08;;;;;;;14.68;9.32;;;12.40;99.90;;;;;;6210720;23;20486;-73
2022/06/22 01:12:36;;;;;;;12.93;9.13;;;12.30;99.90;;;;;;6208772;23;20021;-74
2022/06/22 01:15:23;;;;;;;14.80;9.30;;;12.40;99.90;;;;;;6210776;23;20017;-73
2022/06/22 01:18:01;;;;;;;17.48;9.63;;;12.30;99.90;;;;;;6209984;23;20116;-74
2022/06/22 01:20:32;;;;;;;15.70;10.25;;;12.30;99.90;;;;;;6211072;23;20055;-73
2022/06/22 01:22:58;;;;;;;;;;;12.30;99.90;;;;;;6183777;23;20104;-73
2022/06/22 01:25:35;;;;;;;16.13;9.80;;;12.20;99.90;;;;;;6183878;23;19915;-73
2022/06/22 01:28:01;;;;;;;13.65;9.07;;;12.30;99.90;;;;;;6209985;23;20088;-73
2022/06/22 01:30:39;;;;;;;13.30;9.30;;;12.20;99.90;;;;;;6211828;23;20446;-73
2022/06/22 01:33:17;;;;;;;14.07;10.25;;;12.20;99.90;;;;;;6182860;23;20020;-73
2022/06/22 01:35:43;;;;;;;13.48;9.30;;;12.30;99.90;;;;;;6184548;23;20098;-73
2022/06/22 01:38:18;;;;;;;13.23;9.30;;;12.20;99.90;;;;;;6182569;23;20545;-73
2022/06/22 01:40:50;;;;;;;15.00;9.93;;;12.20;99.90;;;;;;6210581;23;20013;-74
2022/06/22 01:43:27;;;;;;;14.80;9.02;;;12.20;99.90;;;;;;6183902;23;20016;-74
2022/06/22 01:46:07;;;;;;;13.45;8.90;;;12.20;99.90;;;;;;6183886;23;20337;-74
2022/06/22 01:48:43;;;;;;;19.05;10.32;;;12.20;99.90;;;;;;6210791;23;20517;-74
2022/06/22 01:51:31;;;;;;;12.23;8.68;;;12.20;99.90;;;;;;6185102;23;20445;-74
2022/06/22 01:54:00;;;;;;;20.67;9.88;;;12.10;99.90;;;;;;6209970;23;20020;-74
2022/06/22 01:56:34;;;;;;;13.30;9.77;;;12.10;99.90;;;;;;6211823;23;20021;-73
2022/06/22 01:59:18;;;;;;;15.02;9.85;;;12.10;99.90;;;;;;6182591;23;20016;-73
2022/06/22 02:02:14;;;;;;;14.63;9.23;;;12.10;99.90;;;;;;6210616;23;20078;-74
2022/06/22 02:05:03;;;;;;;15.35;9.32;;;12.10;99.90;;;;;;6183805;23;20325;-74
2022/06/22 02:07:46;;;;;;;15.55;10.02;;;12.10;99.90;;;;;;6182117;23;20039;-74
2022/06/22 02:10:23;;;;;;;16.10;10.43;;;12.10;99.90;;;;;;6210323;23;20017;-73
2022/06/22 02:13:28;;;;;;;13.02;8.95;;;12.10;99.90;;;;;;6182343;23;20016;-74
2022/06/22 02:16:14;;;;;;;12.38;9.15;;;12.10;99.90;;;;;;6182788;23;20044;-74
2022/06/22 02:18:50;;;;;;;12.48;9.05;;;12.10;99.90;;;;;;6210006;23;20017;-73
2022/06/22 02:21:18;;;;;;;12.57;8.85;;;12.10;99.90;;;;;;6183183;23;20107;-74
2022/06/22 02:23:47;;;;;;;13.57;9.25;;;12.10;99.90;;;;;;6209586;23;20453;-74
2022/06/22 02:26:20;;;;;;;15.48;8.88;;;11.90;99.90;;;;;;6182177;23;20019;-74
2022/06/22 02:28:47;;;;;;;11.32;8.98;;;12.00;99.90;;;;;;6208798;23;20012;-74
2022/06/22 02:31:15;;;;;;;11.60;8.73;;;12.00;99.90;;;;;;6183407;23;20016;-74
2022/06/22 02:33:46;;;;;;;13.70;9.13;;;12.10;99.90;;;;;;6183689;23;20058;-74
2022/06/22 02:36:13;;;;;;;11.80;8.43;;;12.00;99.90;;;;;;6182680;23;20360;-74
2022/06/22 02:38:42;;;;;;;15.48;9.07;;;12.00;99.90;;;;;;6182268;23;20012;-74
2022/06/22 02:46:40;;;;;;;11.40;8.65;;;12.00;99.90;;;;;;6211325;23;20436;-74
2022/06/22 02:49:17;;;;;;;12.02;8.60;;;12.00;99.90;;;;;;6210945;23;20017;-74
2022/06/22 02:51:46;;;;;;;18.58;8.90;;;12.00;99.90;;;;;;6183129;23;20512;-74
2022/06/22 02:54:29;;;;;;;17.08;9.40;;;12.00;99.90;;;;;;6182949;23;20108;-74
2022/06/22 02:57:24;;;;;;;15.82;9.18;;;12.00;99.90;;;;;;6208837;23;20507;-74
2022/06/22 02:59:50;;;;;;;15.40;8.98;;;11.90;99.90;;;;;;6182600;23;20016;-74
2022/06/22 03:02:18;;;;;;;12.18;8.73;;;11.90;99.90;;;;;;6210872;23;20012;-73
2022/06/22 03:04:45;;;;;;;11.73;8.73;;;11.90;99.90;;;;;;6209426;23;20122;-74
2022/06/22 03:07:11;;;;;;;13.93;9.02;;;11.90;99.90;;;;;;6183840;23;20067;-74
2022/06/22 03:09:38;;;;;;;12.77;8.50;;;11.90;99.90;;;;;;6210412;23;20068;-73
2022/06/22 03:12:05;;;;;;;11.77;9.00;;;11.90;99.90;;;;;;6182463;23;20016;-74
2022/06/22 03:14:44;;;;;;;16.98;8.93;;;11.80;99.90;;;;;;6182291;23;20040;-74
2022/06/22 03:17:16;;;;;;;12.52;7.90;;;11.80;99.90;;;;;;6183407;23;20028;-74
2022/06/22 03:19:47;;;;;;;12.50;8.80;;;11.80;99.90;;;;;;6208384;23;20012;-74
2022/06/22 03:22:19;;;;;;;12.90;9.02;;;11.80;99.90;;;;;;6210821;23;20044;-74
2022/06/22 03:25:17;;;;;;;15.50;8.48;;;11.80;99.90;;;;;;6182078;23;20016;-74
2022/06/22 03:27:46;;;;;;;12.15;8.65;;;11.80;99.90;;;;;;6209298;23;20040;-74
2022/06/22 03:30:20;;;;;;;11.65;8.25;;;11.80;99.90;;;;;;6182894;23;20020;-74
2022/06/22 03:32:57;;;;;;;12.45;7.88;;;11.80;99.90;;;;;;6208080;23;20096;-74
2022/06/22 03:35:32;;;;;;;16.77;9.10;;;11.80;99.90;;;;;;6183413;23;20017;-74
2022/06/22 03:38:33;;;;;;;16.38;9.48;;;11.70;99.90;;;;;;6208447;23;20017;-74
2022/06/22 03:41:04;;;;;;;18.23;8.75;;;11.80;99.90;;;;;;6156310;23;20019;-74
2022/06/22 03:43:45;;;;;;;13.55;8.75;;;11.70;99.90;;;;;;6208130;23;20175;-74
2022/06/22 03:46:29;;;;;;;12.60;8.27;;;11.70;99.90;;;;;;6209330;23;20646;-74
2022/06/22 03:49:38;;;;;;;10.77;9.10;;;11.70;99.90;;;;;;6209949;23;20058;-74
2022/06/22 03:52:16;;;;;;;12.23;7.88;;;11.80;99.90;;;;;;6172633;23;20051;-74
2022/06/22 03:54:58;;;;;;;13.30;8.35;;;11.80;99.90;;;;;;6208999;23;20333;-74
2022/06/22 03:57:27;;;;;;;12.63;8.73;;;11.80;99.90;;;;;;6209811;23;20044;-74
2022/06/22 03:59:56;;;;;;;15.07;7.95;;;11.80;99.90;;;;;;6208157;23;20092;-75
2022/06/22 04:02:26;;;;;;;13.50;9.15;;;11.90;99.90;;;;;;6208899;23;20106;-74
2022/06/22 04:04:56;;;;;;;12.40;8.80;;;11.90;99.90;;;;;;6183145;23;20135;-74
2022/06/22 04:07:27;;;;;;;12.65;8.52;;;11.90;99.90;;;;;;6182750;23;20442;-74
2022/06/22 04:09:58;;;;;;;13.35;8.02;;;12.00;99.90;;;;;;6183590;23;20051;-74
2022/06/22 04:12:51;;;;;;;12.38;8.32;;;12.00;99.90;;;;;;6182645;23;20392;-73
2022/06/22 04:15:33;;;;;;;12.00;8.35;;;12.00;99.90;;;;;;6176340;23;20025;-74
2022/06/22 04:18:05;;;;;;;10.90;7.28;;;12.00;99.90;;;;;;6182364;23;20020;-73
2022/06/22 04:20:54;;;;;;;11.65;7.53;;;12.10;99.90;;;;;;6183452;23;20024;-74
2022/06/22 04:23:44;;;;;;;11.57;6.88;;;12.10;99.90;;;;;;6182500;23;20099;-74
2022/06/22 04:26:36;;;;;;;8.98;5.68;;;12.10;99.90;;;;;;6209758;23;20520;-73
2022/06/22 04:29:13;;;;;;;10.23;7.00;;;12.20;99.90;;;;;;6180211;23;20779;-73
2022/06/22 04:31:55;;;;;;;12.95;7.35;;;12.20;99.90;;;;;;6185057;23;20023;-74
2022/06/22 04:34:33;;;;;;;14.18;9.43;;;12.20;99.90;;;;;;6184453;23;20024;-74
2022/06/22 04:37:05;;;;;;;16.92;9.05;;;12.20;99.90;;;;;;6210985;23;20031;-74
2022/06/22 04:39:36;;;;;;;17.77;10.10;;;12.20;99.90;;;;;;6211316;23;20017;-73
2022/06/22 04:42:04;;;;;;;15.60;10.27;;;12.30;99.90;;;;;;6209232;23;20020;-73
2022/06/22 04:44:46;;;;;;;16.73;10.52;;;12.30;99.90;;;;;;6209875;23;20025;-74
2022/06/22 04:47:32;;;;;;;18.58;10.48;;;12.30;99.90;;;;;;6211103;23;20020;-73
2022/06/22 04:50:04;;;;;;;15.60;10.93;;;12.30;99.90;;;;;;6210466;23;20080;-73
2022/06/22 04:52:31;;;;;;;;;;;12.40;99.90;;;;;;6211129;23;20055;-74
2022/06/22 04:55:01;;;;;;;17.85;10.52;;;12.40;99.90;;;;;;6211075;23;19916;-73
2022/06/22 04:57:32;;;;;;;17.08;10.90;;;12.50;99.90;;;;;;6210191;23;20020;-73
2022/06/22 05:00:03;;;;;;;17.55;11.05;;;12.60;99.90;;;;;;6211241;23;20487;-74
2022/06/22 05:02:31;;;;;;;;;;;12.50;99.90;;;;;;6185467;23;20100;-74
2022/06/22 05:05:05;;;;;;;15.98;10.27;;;12.70;99.90;;;;;;6183702;23;20002;-74
2022/06/22 05:07:35;;;;;;;20.88;11.27;;;12.70;99.90;;;;;;6183598;23;20017;-74
2022/06/22 05:10:22;;;;;;;17.02;9.85;;;12.80;99.90;;;;;;6209376;23;20762;-74
2022/06/22 05:13:03;;;;;;;13.93;10.25;;;12.90;99.90;;;;;;6209566;23;20102;-74
2022/06/22 05:15:33;;;;;;;15.43;10.63;;;12.90;99.90;;;;;;6183588;23;20012;-74
2022/06/22 05:18:01;;;;;;;17.65;10.43;;;12.90;99.90;;;;;;6182564;23;20305;-74
2022/06/22 05:20:41;;;;;;;14.75;8.93;;;13.00;99.90;;;;;;6182915;23;20017;-74
2022/06/22 05:23:08;;;;;;;11.32;7.72;;;13.10;99.90;;;;;;6183784;23;20017;-74
2022/06/22 05:25:35;;;;;;;15.10;8.15;;;13.10;99.90;;;;;;6183473;23;20031;-74
2022/06/22 05:28:04;;;;;;;13.02;8.40;;;13.20;99.90;;;;;;6210544;23;20019;-73
2022/06/22 05:30:38;;;;;;;18.65;8.25;;;13.20;99.90;;;;;;6184645;23;20030;-74
2022/06/22 05:33:10;;;;;;;14.35;8.18;;;13.30;99.90;;;;;;6184172;23;20063;-73
2022/06/22 05:35:42;;;;;;;14.30;8.43;;;13.40;99.90;;;;;;6184636;23;20043;-73
2022/06/22 05:38:10;;;;;;;15.32;8.05;;;13.50;99.90;;;;;;6183743;23;20028;-74
2022/06/22 05:40:39;;;;;;;11.98;7.53;;;13.50;99.90;;;;;;6183306;23;20512;-74
2022/06/22 05:43:06;;;;;;;10.60;7.35;;;13.60;99.90;;;;;;6208807;23;20397;-73
2022/06/22 05:45:39;;;;;;;16.40;7.05;;;13.60;99.90;;;;;;6209688;23;20017;-74
2022/06/22 05:48:06;;;;;;;12.75;8.90;;;13.70;99.90;;;;;;6211492;23;20020;-75
2022/06/22 05:50:36;;;;;;;19.35;9.70;;;13.80;99.90;;;;;;6183876;23;20023;-74
2022/06/22 05:53:14;;;;;;;16.92;10.43;;;13.90;99.90;;;;;;6209663;23;20020;-75
2022/06/22 05:55:45;;;;;;;12.90;8.90;;;14.00;99.90;;;;;;6183854;23;20023;-74
2022/06/22 05:58:26;;;;;;;12.00;7.70;;;14.10;99.90;;;;;;6209675;23;20013;-75
2022/06/22 06:00:54;;;;;;;11.00;7.05;;;14.10;99.90;;;;;;6208876;23;20056;-75
2022/06/22 06:03:19;;;;;;;13.40;8.60;;;14.20;99.90;;;;;;6210013;23;20048;-75
2022/06/22 06:05:49;;;;;;;14.50;9.48;;;14.20;99.90;;;;;;6211624;23;20031;-75
2022/06/22 06:08:25;;;;;;;12.00;8.40;;;14.30;99.90;;;;;;6181698;23;20021;-73
2022/06/22 06:10:51;;;;;;;17.88;9.70;;;14.30;99.90;;;;;;6182903;23;20373;-74
2022/06/22 06:13:39;;;;;;;14.18;8.60;;;14.40;99.90;;;;;;6209361;23;20078;-74
2022/06/22 06:16:25;;;;;;;11.85;8.48;;;14.50;99.90;;;;;;6210207;23;20020;-73
2022/06/22 06:18:52;;;;;;;17.08;8.35;;;14.50;99.90;;;;;;6208538;23;20027;-73
2022/06/22 06:21:25;;;;;;;15.15;7.97;;;14.60;99.90;;;;;;6210616;23;20016;-74
2022/06/22 06:24:05;;;;;;;22.23;8.40;;;14.70;99.90;;;;;;6210622;23;20101;-74
2022/06/22 06:29:42;;;;;;;10.98;7.55;;;14.80;99.90;;;;;;6180348;23;20029;-73
2022/06/22 06:32:31;;;;;;;18.08;7.22;;;14.90;99.90;;;;;;6183318;23;20024;-73
2022/06/22 06:35:18;;;;;;;16.02;8.23;;;15.00;99.90;;;;;;6182731;23;20024;-73
2022/06/22 06:37:48;;;;;;;11.38;7.43;;;15.10;99.90;;;;;;6208811;23;20067;-73
2022/06/22 06:40:22;;;;;;;13.93;7.82;;;15.20;99.90;;;;;;6182887;23;20096;-73
2022/06/22 06:43:13;;;;;;;14.50;7.60;;;15.20;99.90;;;;;;6180808;23;20075;-73
2022/06/22 06:45:40;;;;;;;;;;;15.30;99.90;;;;;;6192596;23;20059;-73
2022/06/22 06:48:11;;;;;;;14.82;7.70;;;15.30;99.90;;;;;;6209242;23;20358;-73
2022/06/22 06:50:45;;;;;;;12.40;6.72;;;15.40;99.90;;;;;;6209433;23;20082;-73
2022/06/22 06:53:23;;;;;;;10.57;6.25;;;15.50;99.90;;;;;;6182037;23;20020;-74
2022/06/22 06:56:03;;;;;;;10.40;5.40;;;15.50;99.90;;;;;;6180951;23;20021;-75
2022/06/22 06:58:52;;;;;;;12.48;6.63;;;15.60;99.90;;;;;;6182717;23;20409;-74
2022/06/22 07:01:29;;;;;;;10.65;6.00;;;15.70;99.90;;;;;;6183487;23;20070;-74
2022/06/22 07:03:58;;;;;;;13.55;7.00;;;15.70;99.90;;;;;;6209728;23;20021;-74
2022/06/22 07:06:26;;;;;;;10.25;5.18;;;15.80;99.90;;;;;;6209309;23;20467;-74
2022/06/22 07:09:04;;;;;;;11.55;5.97;;;15.80;99.90;;;;;;6209259;23;20024;-74
2022/06/22 07:11:33;;;;;;;15.80;6.15;;;15.90;99.90;;;;;;6208174;23;20047;-74
2022/06/22 07:14:19;;;;;;;10.60;4.30;;;16.00;99.90;;;;;;6208632;23;20228;-74
2022/06/22 07:16:50;;;;;;;10.80;4.03;;;16.10;99.90;;;;;;6207999;23;20016;-74
2022/06/22 07:19:24;;;;;;;10.40;4.40;;;16.20;99.90;;;;;;6208823;23;20036;-73
2022/06/22 07:22:01;;;;;;;7.85;4.43;;;16.20;99.90;;;;;;6181050;23;20012;-73
2022/06/22 07:24:30;;;;;;;7.47;3.80;;;16.20;99.90;;;;;;6207185;23;20341;-74
2022/06/22 07:27:14;;;;;;;10.30;4.68;;;16.30;99.90;;;;;;6209397;23;20103;-74
2022/06/22 07:29:54;;;;;;;12.02;6.13;;;16.30;99.90;;;;;;6206222;23;20433;-74
2022/06/22 07:32:49;;;;;;;10.02;5.05;;;16.40;99.90;;;;;;6208937;23;20021;-74
2022/06/22 07:35:28;;;;;;;10.77;4.90;;;16.40;99.90;;;;;;6130361;23;20023;-74
2022/06/22 07:38:25;;;;;;;11.98;6.72;;;16.50;99.90;;;;;;6180089;23;20503;-74
2022/06/22 07:43:36;;;;;;;24.73;7.05;;;16.60;99.90;;;;;;6209293;23;20318;-74
2022/06/22 07:46:02;;;;;;;12.18;5.50;;;16.70;99.90;;;;;;6209255;23;20096;-74
2022/06/22 07:48:33;;;;;;;11.05;5.50;;;16.70;99.90;;;;;;6208917;23;20389;-74
2022/06/22 07:51:02;;;;;;;12.93;5.87;;;16.80;99.90;;;;;;6206607;23;20021;-75
2022/06/22 07:53:45;;;;;;;11.57;5.38;;;16.80;99.90;;;;;;6179096;23;20024;-75
2022/06/22 07:56:22;;;;;;;13.68;5.30;;;16.90;99.90;;;;;;6183323;23;20016;-74
2022/06/22 07:59:16;;;;;;;12.23;5.13;;;17.00;99.90;;;;;;6180306;23;20016;-75
2022/06/22 08:01:44;;;;;;;11.30;4.93;;;17.00;99.90;;;;;;6201945;23;20506;-81
2022/06/22 08:04:21;;;;;;;11.48;4.50;;;17.10;99.90;;;;;;6210005;23;20017;-81
2022/06/22 08:06:54;;;;;;;9.52;4.15;;;17.10;99.90;;;;;;6211936;23;20016;-80
2022/06/22 08:09:28;;;;;;;8.02;4.30;;;17.20;99.90;;;;;;6210478;23;20024;-75
2022/06/22 08:12:14;;;;;;;11.63;4.43;;;17.20;99.90;;;;;;6210352;23;20020;-73
2022/06/22 08:14:46;;;;;;;7.75;4.53;;;17.30;99.90;;;;;;6208604;23;20413;-74
2022/06/22 08:17:40;;;;;;;11.10;4.90;;;17.30;99.90;;;;;;6182573;23;20024;-74
2022/06/22 08:20:08;;;;;;;12.45;4.70;;;17.40;99.90;;;;;;6169740;23;20059;-74
2022/06/22 08:22:34;;;;;;;10.90;4.97;;;17.50;99.90;;;;;;6183036;23;20090;-73
2022/06/22 08:25:03;;;;;;;9.95;4.43;;;17.50;99.90;;;;;;6209466;23;20025;-74
2022/06/22 08:27:29;;;;;;;12.80;6.00;;;17.60;99.90;;;;;;6207288;23;20483;-74
2022/06/22 08:29:56;;;;;;;12.35;5.20;;;17.60;99.90;;;;;;6210195;23;20055;-74
2022/06/22 08:32:28;;;;;;;10.88;5.25;;;17.70;99.90;;;;;;6184182;23;20021;-75
2022/06/22 08:35:10;;;;;;;14.13;5.90;;;17.80;99.90;;;;;;6210892;23;20024;-75
2022/06/22 08:37:59;;;;;;;14.10;5.85;;;17.90;99.90;;;;;;6209995;23;20075;-75
2022/06/22 08:41:00;;;;;;;11.07;4.65;;;17.90;99.90;;;;;;6184542;23;20286;-74
2022/06/22 08:43:35;;;;;;;9.82;4.50;;;18.00;99.90;;;;;;6210708;23;20021;-74
2022/06/22 08:46:13;;;;;;;10.30;4.55;;;18.00;99.90;;;;;;6212147;23;20100;-74
2022/06/22 08:49:15;;;;;;;8.45;4.70;;;18.10;99.90;;;;;;6210936;23;20168;-75
2022/06/22 08:52:23;;;;;;;8.85;4.90;;;18.20;99.90;;;;;;6212660;23;20017;-76
2022/06/22 08:55:09;;;;;;;14.60;6.55;;;18.20;99.90;;;;;;6160277;23;20527;-76
2022/06/22 08:58:06;;;;;;;11.90;5.57;;;18.20;99.90;;;;;;6183782;23;20040;-75
2022/06/22 09:00:44;;;;;;;9.48;5.22;;;18.30;99.90;;;;;;6212025;23;20091;-75
2022/06/22 09:03:47;;;;;;;11.35;4.95;;;18.40;99.90;;;;;;6182659;23;20027;-74
2022/06/22 09:06:31;;;;;;;11.23;4.90;;;18.50;99.90;;;;;;6212373;23;20024;-75
2022/06/22 09:09:02;;;;;;;10.80;5.57;;;18.60;99.90;;;;;;6208766;23;20020;-75
2022/06/22 09:11:51;;;;;;;10.73;5.05;;;18.60;99.90;;;;;;6209637;23;20017;-75
2022/06/22 09:14:32;;;;;;;10.57;5.18;;;18.60;99.90;;;;;;6210466;23;20095;-74
2022/06/22 09:17:21;;;;;;;11.45;5.18;;;18.70;99.90;;;;;;6208149;23;20044;-74
2022/06/22 09:20:34;;;;;;;13.88;6.10;;;18.70;99.90;;;;;;6211025;23;20027;-74
2022/06/22 09:23:40;;;;;;;13.68;5.43;;;18.80;99.90;;;;;;6182253;23;20103;-73
2022/06/22 09:26:27;;;;;;;11.07;4.38;;;18.80;99.90;;;;;;6104583;23;20023;-74
2022/06/22 09:29:04;;;;;;;13.18;4.95;;;18.90;99.90;;;;;;6210511;23;20122;-74
2022/06/22 09:31:54;;;;;;;10.75;4.82;;;19.00;99.90;;;;;;6183724;23;20083;-74
2022/06/22 09:34:55;;;;;;;16.38;4.78;;;19.00;99.90;;;;;;6183537;23;20453;-74
2022/06/22 09:37:26;;;;;;;10.93;4.53;;;19.10;99.90;;;;;;6211379;23;20017;-74
2022/06/22 09:40:01;;;;;;;13.55;4.72;;;19.10;99.90;;;;;;6211623;23;20240;-74
2022/06/22 09:42:54;;;;;;;10.50;4.22;;;19.10;99.90;;;;;;6182646;23;20020;-75
2022/06/22 09:45:29;;;;;;;12.38;5.50;;;19.20;99.90;;;;;;6183353;23;20571;-75
2022/06/22 09:48:16;;;;;;;7.97;4.07;;;19.30;99.90;;;;;;6210705;23;20019;-75
2022/06/22 09:51:00;;;;;;;6.63;4.25;;;19.30;99.90;;;;;;6183372;23;20013;-76
2022/06/22 09:53:44;;;;;;;8.90;4.78;;;19.30;99.90;;;;;;6209890;23;20063;-76
2022/06/22 09:56:30;;;;;;;14.00;3.75;;;19.30;99.90;;;;;;6184390;23;20031;-74
2022/06/22 09:59:10;;;;;;;6.40;3.83;;;19.30;99.90;;;;;;6182258;23;20067;-74
2022/06/22 10:02:17;;;;;;;12.32;4.25;;;19.40;99.90;;;;;;6184671;23;20051;-75
2022/06/22 10:05:26;;;;;;;9.93;4.47;;;19.50;99.90;;;;;;6210042;23;20035;-76
2022/06/22 10:08:14;;;;;;;19.30;4.95;;;19.50;99.90;;;;;;6209338;23;20059;-75
2022/06/22 10:11:11;;;;;;;9.77;4.28;;;19.50;99.90;;;;;;6184174;23;20016;-75
2022/06/22 10:13:43;;;;;;;16.00;4.93;;;19.60;99.90;;;;;;6208396;23;20017;-75
2022/06/22 10:16:17;;;;;;;15.98;5.90;;;19.60;99.90;;;;;;6184302;23;20020;-76
2022/06/22 10:19:01;;;;;;;9.30;5.22;;;19.70;99.90;;;;;;6210647;23;20731;-75
2022/06/22 10:21:48;;;;;;;12.68;5.05;;;19.80;99.90;;;;;;6183681;23;20078;-75
2022/06/22 10:24:42;;;;;;;13.43;5.20;;;19.80;99.90;;;;;;6183348;23;20020;-77
2022/06/22 10:27:31;;;;;;;11.73;5.05;;;19.90;99.90;;;;;;6208680;23;20024;-76
2022/06/22 10:30:27;;;;;;;11.23;5.10;;;19.90;99.90;;;;;;6210289;23;20024;-75
2022/06/22 10:33:27;;;;;;;11.77;4.43;;;19.90;99.90;;;;;;6209524;23;20139;-74
2022/06/22 10:36:34;;;;;;;15.73;5.07;;;19.90;99.90;;;;;;6182586;23;20068;-74
2022/06/22 10:39:30;;;;;;;10.88;4.97;;;20.00;99.90;;;;;;6209434;23;20031;-74
2022/06/22 10:45:20;;;;;;;11.02;4.43;;;20.20;99.90;;;;;;6183905;23;20047;-75
2022/06/22 10:47:46;;;;;;;11.07;5.25;;;20.20;99.90;;;;;;6210705;23;20037;-75
2022/06/22 10:50:39;;;;;;;8.40;4.25;;;20.20;99.90;;;;;;6211390;23;20024;-74
2022/06/22 10:53:23;;;;;;;10.02;4.80;;;20.30;99.90;;;;;;6183064;23;20100;-75
2022/06/22 10:56:03;;;;;;;13.02;4.80;;;20.30;99.90;;;;;;6183058;23;20067;-74
2022/06/22 10:58:49;;;;;;;9.65;4.20;;;20.40;99.90;;;;;;6209533;23;20177;-73
2022/06/22 11:01:42;;;;;;;14.00;4.28;;;20.40;99.90;;;;;;6210810;23;20024;-75
2022/06/22 11:04:45;;;;;;;12.60;3.60;;;20.50;99.70;;;;;;6179528;23;20127;-75
2022/06/22 11:07:33;;;;;;;10.40;4.18;;;20.50;99.30;;;;;;6178374;23;20156;-78
2022/06/22 11:10:21;;;;;;;9.48;3.92;;;20.60;99.20;;;;;;6206026;23;20040;-77
2022/06/22 11:13:14;;;;;;;11.32;4.72;;;20.70;98.70;;;;;;6108676;23;20170;-75
2022/06/22 11:15:48;;;;;;;7.78;3.50;;;20.70;98.60;;;;;;6207651;23;20027;-75
2022/06/22 11:18:36;;;;;;;8.15;3.67;;;20.80;98.40;;;;;;6177984;23;20080;-76
2022/06/22 11:21:04;;;;;;;10.95;4.38;;;20.90;98.30;;;;;;6183743;23;20021;-75
2022/06/22 11:23:48;;;;;;;9.32;3.85;;;20.90;98.30;;;;;;6176948;23;20017;-75
2022/06/22 11:33:04;;;;;;;14.85;4.93;;;21.10;98.50;;;;;;6181491;23;20016;-76
2022/06/22 11:35:48;;;;;;;9.02;4.38;;;21.10;98.40;;;;;;6181148;23;20076;-76
2022/06/22 11:38:51;;;;;;;10.32;4.40;;;21.20;98.30;;;;;;6204241;23;20055;-81
2022/06/22 11:41:44;;;;;;;11.80;4.25;;;21.30;98.10;;;;;;6206655;23;20016;-75
2022/06/22 11:45:50;;;;;;;11.55;4.43;;;21.40;98.10;;;;;;6206675;23;20052;-75
2022/06/22 11:48:11;;;;;;;12.57;4.88;;;21.50;98.00;;;;;;6209470;23;20055;-74
2022/06/22 11:51:03;;;;;;;11.25;3.90;;;21.70;97.90;;;;;;6183828;23;20020;-75
2022/06/22 11:53:49;;;;;;;10.27;4.20;;;21.70;97.70;;;;;;6209470;23;20031;-74
2022/06/22 11:56:47;;;;;;;7.75;3.85;;;21.80;97.60;;;;;;6180900;23;20013;-74
2022/06/22 11:59:46;;;;;;;7.10;3.55;;;21.90;97.20;;;;;;6176621;23;20017;-75
2022/06/22 12:02:44;;;;;;;13.15;4.32;;;22.00;96.80;;;;;;6183192;23;20020;-75
2022/06/22 12:05:34;;;;;;;9.57;3.38;;;22.00;96.60;;;;;;6182613;23;20460;-75
2022/06/22 12:08:21;;;;;;;7.93;3.67;;;22.10;96.60;;;;;;6208483;23;20467;-75
2022/06/22 12:10:51;;;;;;;9.68;3.88;;;22.10;96.70;;;;;;6209811;23;20021;-75
2022/06/22 12:15:04;;;;;;;12.10;3.53;;;22.20;96.30;;;;;;6205415;23;20013;-74
2022/06/22 12:16:32;;;;;;;9.57;3.60;;;22.20;95.90;;;;;;6210038;23;20341;-74
2022/06/22 12:19:43;;;;;;;9.52;4.00;;;22.30;95.50;;;;;;6183203;23;20074;-75
2022/06/22 12:22:45;;;;;;;12.40;3.80;;;22.30;95.00;;;;;;6210562;23;20025;-75
2022/06/22 12:25:22;;;;;;;8.73;2.97;;;22.40;95.20;;;;;;6076863;23;20023;-73
2022/06/22 12:28:08;;;;;;;10.85;3.17;;;22.40;95.50;;;;;;6181204;23;20036;-74
2022/06/22 12:31:14;;;;;;;10.75;3.92;;;22.50;95.20;;;;;;6183536;23;20077;-74
2022/06/22 12:33:54;;;;;;;9.48;3.25;;;22.70;94.90;;;;;;6175114;23;20099;-74
2022/06/22 12:36:49;;;;;;;8.50;4.05;;;22.70;94.90;;;;;;6210087;23;20029;-74
2022/06/22 12:39:25;;;;;;;11.90;3.58;;;22.80;95.00;;;;;;6201083;23;20013;-74
2022/06/22 12:41:54;;;;;;;10.65;3.00;;;22.90;94.90;;;;;;6209102;23;20020;-74
2022/06/22 12:44:56;;;;;;;9.02;3.10;;;23.00;94.60;;;;;;6181892;23;20029;-75
2022/06/22 12:47:56;;;;;;;14.07;4.22;;;23.10;94.30;;;;;;6182688;23;20023;-75
2022/06/22 12:50:49;;;;;;;10.88;3.63;;;23.20;93.90;;;;;;6211252;23;20504;-75
2022/06/22 12:53:25;;;;;;;9.40;3.40;;;23.30;93.50;;;;;;6210815;23;20394;-75
2022/06/22 12:56:00;;;;;;;9.73;3.88;;;23.20;93.30;;;;;;6210799;23;20168;-74
2022/06/22 12:58:51;;;;;;;9.05;3.42;;;23.30;92.80;;;;;;6184460;23;20060;-74
2022/06/22 13:01:18;;;;;;;10.48;3.65;;;23.40;92.80;;;;;;6185492;23;20020;-74
2022/06/22 13:03:49;;;;;;;7.88;3.38;;;23.40;92.40;;;;;;6183260;23;20107;-75
2022/06/22 13:06:15;;;;;;;9.00;2.97;;;23.50;92.00;;;;;;6212355;23;20028;-75
2022/06/22 13:08:41;;;;;;;9.00;3.47;;;23.50;91.30;;;;;;6209330;23;20012;-75
2022/06/22 13:11:17;;;;;;;9.55;3.35;;;23.50;90.40;;;;;;6184545;23;20017;-74
2022/06/22 13:14:15;;;;;;;13.35;3.40;;;23.40;90.20;;;;;;6210465;23;20055;-74
2022/06/22 13:16:45;;;;;;;8.55;2.53;;;23.40;90.50;;;;;;6211794;23;20067;-75
2022/06/22 13:19:25;;;;;;;7.60;3.43;;;23.40;90.70;;;;;;6183647;23;20341;-77
2022/06/22 13:22:04;;;;;;;11.05;3.97;;;23.40;90.20;;;;;;6211775;23;20393;-76
2022/06/22 13:25:08;;;;;;;8.55;3.50;;;23.40;90.00;;;;;;6182688;23;20016;-75
2022/06/22 13:27:52;;;;;;;9.10;3.28;;;23.40;90.00;;;;;;6184274;23;20025;-75
2022/06/22 13:30:22;;;;;;;10.13;3.50;;;23.40;89.40;;;;;;6210545;23;20460;-75
2022/06/22 13:33:12;;;;;;;10.60;4.55;;;23.40;89.70;;;;;;6211286;23;20023;-75
2022/06/22 13:36:05;;;;;;;15.10;4.73;;;23.40;90.50;;;;;;6211950;23;20021;-75
2022/06/22 13:38:57;;;;;;;14.98;4.00;;;23.50;91.20;;;;;;6116909;23;20252;-75
2022/06/22 13:41:25;;;;;;;8.35;3.58;;;23.60;90.90;;;;;;6211916;23;20029;-75
2022/06/22 13:44:32;;;;;;;27.90;5.03;;;23.70;90.90;;;;;;6182291;23;20341;-75
2022/06/22 13:47:44;;;;;;;10.30;4.63;;;23.80;91.30;;;;;;6112785;23;20040;-76
2022/06/22 13:51:43;;;;;;;10.25;4.80;;;23.80;91.60;;;;;;6211745;23;20311;-76
2022/06/22 13:53:59;;;;;;;14.63;5.32;;;23.80;91.80;;;;;;6200924;23;20526;-75
2022/06/22 13:56:57;;;;;;;9.95;4.25;;;23.70;91.70;;;;;;6210913;23;20095;-76
2022/06/22 13:59:44;;;;;;;15.20;4.85;;;23.60;92.60;;;;;;6209050;23;20024;-76
2022/06/22 14:02:28;;;;;;;12.10;5.20;;;23.60;92.50;;;;;;6184334;23;20016;-76
2022/06/22 14:04:58;;;;;;;12.30;5.65;;;23.70;92.70;;;;;;6210662;23;20333;-76